Time;durP1;ratioP1;P1;durP2;ratioP2;P2;SDS_P1;SDS_P2;PMS_P1;PMS_P2;Temp;Humidity;BMP_temperature;BMP_pressure;BME280_temperature;BME280_humidity;BME280_pressure;Samples;Min_cycle;Max_cycle;Signal;HPM_P1;HPM_P2
2023/09/15 00:02:05;;;;;;;113.68;107.78;;;;;;;14.17;100.00;101959.34;10495152;28;20039;-68
2023/09/15 00:07:05;;;;;;;90.07;85.40;;;;;;;14.19;100.00;101958.09;10476511;28;20097;-67
2023/09/15 00:12:08;;;;;;;110.78;105.30;;;;;;;14.16;100.00;101952.19;10492851;28;20459;-67
2023/09/15 00:17:09;;;;;;;137.45;130.13;;;;;;;14.09;100.00;101954.88;10475379;28;20442;-68
2023/09/15 00:22:09;;;;;;;164.93;157.57;;;;;;;14.03;100.00;101952.09;10474686;28;20040;-68
2023/09/15 00:27:09;;;;;;;223.27;212.65;;;;;;;14.00;100.00;101947.88;10493586;28;20036;-68
2023/09/15 00:32:10;;;;;;;268.58;256.77;;;;;;;13.95;100.00;101950.34;10494307;28;20033;-68
2023/09/15 00:37:11;;;;;;;329.10;314.02;;;;;;;13.87;100.00;101945.00;10458460;28;20144;-68
2023/09/15 00:42:12;;;;;;;346.45;330.08;;;;;;;13.79;100.00;101948.72;10492618;28;20098;-68
2023/09/15 00:47:12;;;;;;;394.90;376.95;;;;;;;13.73;100.00;101944.03;10473616;28;20083;-69
2023/09/15 00:52:13;;;;;;;439.73;419.00;;;;;;;13.76;100.00;101945.53;10492335;28;20036;-67
2023/09/15 00:57:13;;;;;;;472.77;450.40;;;;;;;13.68;100.00;101936.44;10465098;28;20044;-68
2023/09/15 01:02:14;;;;;;;492.70;468.13;;;;;;;13.63;100.00;101936.19;10499845;28;20066;-68
2023/09/15 01:07:14;;;;;;;541.65;514.08;;;;;;;13.57;100.00;101934.22;10499857;28;20087;-68
2023/09/15 01:12:14;;;;;;;546.95;518.90;;;;;;;13.60;100.00;101938.44;10499901;28;20501;-70
2023/09/15 01:17:26;;;;;;;576.17;545.40;;;;;;;13.49;100.00;101923.44;10500931;28;20033;-68
2023/09/15 01:22:51;;;;;;;606.03;572.75;;;;;;;13.51;100.00;101923.28;10482185;28;20111;-67
2023/09/15 01:27:58;;;;;;;581.83;550.83;;;;;;;13.52;100.00;101923.06;10500264;28;20101;-68
2023/09/15 01:32:58;;;;;;;629.33;594.40;;;;;;;13.48;100.00;101921.78;10502947;28;20045;-68
2023/09/15 01:38:00;;;;;;;650.72;613.47;;;;;;;13.39;100.00;101909.31;10502100;28;20541;-66
2023/09/15 01:43:00;;;;;;;694.45;653.17;;;;;;;13.37;100.00;101908.66;10484188;28;20033;-67
2023/09/15 01:48:01;;;;;;;714.63;671.80;;;;;;;13.38;100.00;101913.06;10482612;28;20051;-67
2023/09/15 01:53:01;;;;;;;718.17;674.25;;;;;;;13.32;100.00;101911.97;10481616;28;20040;-67
2023/09/15 01:58:02;;;;;;;737.75;692.30;;;;;;;13.28;100.00;101907.09;10481387;28;20139;-68
2023/09/15 02:03:03;;;;;;;742.13;696.00;;;;;;;13.22;100.00;101900.50;10464915;28;20051;-67
2023/09/15 02:08:04;;;;;;;743.25;697.17;;;;;;;13.16;100.00;101902.09;10498617;28;20032;-67
2023/09/15 02:13:05;;;;;;;746.13;699.42;;;;;;;13.08;100.00;101896.78;10480983;28;20036;-67
2023/09/15 02:18:06;;;;;;;756.83;708.88;;;;;;;13.08;100.00;101894.06;10501561;28;20108;-68
2023/09/15 02:23:06;;;;;;;769.45;720.08;;;;;;;13.07;100.00;101891.53;10500969;28;20044;-68
2023/09/15 02:28:07;;;;;;;770.20;720.90;;;;;;;13.08;100.00;101888.63;10500634;28;20113;-67
2023/09/15 02:33:07;;;;;;;758.58;710.20;;;;;;;13.03;100.00;101888.34;10497815;28;20139;-67
2023/09/15 02:38:07;;;;;;;768.10;718.92;;;;;;;12.99;100.00;101884.31;10496699;28;20032;-68
2023/09/15 02:43:10;;;;;;;760.30;712.08;;;;;;;12.99;100.00;101877.00;10496507;28;20095;-67
2023/09/15 02:48:11;;;;;;;769.45;720.22;;;;;;;12.94;100.00;101881.31;10478556;28;20488;-68
2023/09/15 02:53:12;;;;;;;748.42;701.53;;;;;;;12.89;100.00;101878.31;10495475;28;20040;-68
2023/09/15 02:58:13;;;;;;;745.03;698.38;;;;;;;12.83;100.00;101882.66;10478168;28;20098;-67
2023/09/15 03:03:13;;;;;;;751.85;704.17;;;;;;;12.82;100.00;101880.09;10480268;28;20494;-67
2023/09/15 03:08:14;;;;;;;738.33;691.80;;;;;;;12.79;100.00;101875.88;10497165;28;20032;-67
2023/09/15 03:13:15;;;;;;;747.28;699.45;;;;;;;12.79;100.00;101873.16;10480237;28;20024;-67
2023/09/15 03:18:15;;;;;;;731.03;685.30;;;;;;;12.76;100.00;101868.09;10497088;28;20483;-67
2023/09/15 03:23:16;;;;;;;740.58;693.88;;;;;;;12.77;100.00;101870.66;10497387;28;20048;-67
2023/09/15 03:28:16;;;;;;;718.22;674.08;;;;;;;12.79;100.00;101863.16;10479171;28;20417;-67
2023/09/15 03:33:17;;;;;;;699.33;656.55;;;;;;;12.75;100.00;101856.41;10496943;28;20093;-67
2023/09/15 03:38:18;;;;;;;693.75;651.90;;;;;;;12.77;100.00;101865.22;10479178;28;20091;-67
2023/09/15 03:43:18;;;;;;;666.03;626.50;;;;;;;12.77;100.00;101864.38;10497041;28;20418;-67
2023/09/15 03:48:19;;;;;;;633.15;596.80;;;;;;;12.72;100.00;101856.78;10461806;28;20100;-67
2023/09/15 03:53:19;;;;;;;615.10;579.72;;;;;;;12.75;100.00;101850.97;10478339;28;20063;-67
2023/09/15 03:58:20;;;;;;;601.45;567.97;;;;;;;12.77;100.00;101851.63;10496113;28;20064;-68
2023/09/15 04:03:23;;;;;;;549.92;519.92;;;;;;;12.75;100.00;101850.97;10494942;28;20139;-67
2023/09/15 04:08:23;;;;;;;524.35;496.95;;;;;;;12.76;100.00;101849.94;10477681;28;20420;-67
2023/09/15 04:13:24;;;;;;;487.40;461.80;;;;;;;12.71;100.00;101840.66;10494779;28;20044;-67
2023/09/15 04:18:24;;;;;;;461.58;437.88;;;;;;;12.70;100.00;101837.13;10495708;28;20028;-67
2023/09/15 04:23:25;;;;;;;517.40;490.15;;;;;;;12.69;100.00;101842.72;10494889;28;20112;-69
2023/09/15 04:28:25;;;;;;;439.55;417.70;;;;;;;12.68;100.00;101843.75;10493772;28;20071;-67
2023/09/15 04:33:26;;;;;;;473.80;448.95;;;;;;;12.67;100.00;101840.19;10495502;28;20218;-67
2023/09/15 04:38:26;;;;;;;406.23;385.48;;;;;;;12.65;100.00;101839.53;10495014;28;20043;-67
2023/09/15 04:43:29;;;;;;;399.25;378.92;;;;;;;12.59;100.00;101834.84;10494267;28;20189;-67
2023/09/15 04:48:30;;;;;;;367.38;349.20;;;;;;;12.58;100.00;101838.63;10477345;28;20032;-67
2023/09/15 04:53:30;;;;;;;343.20;325.20;;;;;;;12.56;100.00;101841.50;10495965;28;20067;-68
2023/09/15 04:58:31;;;;;;;411.38;390.75;;;;;;;12.51;100.00;101843.94;10476686;28;20053;-67
2023/09/15 05:03:31;;;;;;;309.10;293.35;;;;;;;12.48;100.00;101840.78;10494382;28;20032;-68
2023/09/15 05:08:32;;;;;;;397.92;377.05;;;;;;;12.38;100.00;101846.47;10494169;28;20471;-68
2023/09/15 05:13:32;;;;;;;374.90;354.35;;;;;;;12.40;100.00;101847.13;10476404;28;20064;-68
2023/09/15 05:18:33;;;;;;;245.32;232.18;;;;;;;12.41;100.00;101856.09;10476435;28;20039;-67
2023/09/15 05:23:33;;;;;;;266.70;252.30;;;;;;;12.43;100.00;101854.06;10494096;28;20135;-67
2023/09/15 05:28:34;;;;;;;202.75;191.45;;;;;;;12.46;100.00;101857.25;10494076;28;20387;-67
2023/09/15 05:33:34;;;;;;;282.92;267.88;;;;;;;12.52;100.00;101861.94;10476377;28;20199;-67
2023/09/15 05:38:35;;;;;;;306.77;290.08;;;;;;;12.56;100.00;101862.41;10496297;28;20512;-68
2023/09/15 05:43:36;;;;;;;214.85;202.45;;;;;;;12.58;100.00;101860.34;10498918;28;20040;-67
2023/09/15 05:48:36;;;;;;;140.02;131.35;;;;;;;12.67;100.00;101858.38;10466199;28;20127;-68
2023/09/15 05:53:37;;;;;;;109.32;101.63;;;;;;;12.72;100.00;101864.09;10500497;28;20086;-67
2023/09/15 05:58:37;;;;;;;146.20;138.15;;;;;;;12.77;100.00;101864.38;10501862;28;20048;-67
2023/09/15 06:03:38;;;;;;;134.77;126.72;;;;;;;12.96;100.00;101865.66;10482286;28;20052;-67
2023/09/15 06:08:38;;;;;;;78.28;72.45;;;;;;;13.68;100.00;101864.81;10482148;28;20036;-68
2023/09/15 06:13:39;;;;;;;74.75;69.38;;;;;;;14.61;100.00;101857.41;10481757;28;20058;-68
2023/09/15 06:18:39;;;;;;;89.88;83.22;;;;;;;15.24;100.00;101868.19;10499830;28;20076;-68
2023/09/15 06:23:40;;;;;;;170.60;160.65;;;;;;;15.89;100.00;101866.69;10482159;28;20094;-68
2023/09/15 06:28:40;;;;;;;293.65;279.33;;;;;;;16.45;100.00;101874.41;10498492;28;20039;-68
2023/09/15 06:33:40;;;;;;;417.00;397.45;;;;;;;16.81;100.00;101864.91;10481013;28;20119;-68
2023/09/15 06:38:41;;;;;;;398.30;379.35;;;;;;;17.35;100.00;101866.34;10482334;28;20050;-68
2023/09/15 06:43:42;;;;;;;415.73;395.95;;;;;;;17.72;100.00;101844.63;10480554;28;20032;-68
2023/09/15 06:48:43;;;;;;;391.75;373.17;;;;;;;18.01;100.00;101845.06;10498981;28;20429;-68
2023/09/15 06:53:45;;;;;;;357.45;341.42;;;;;;;18.17;100.00;101843.66;10497478;28;20064;-68
2023/09/15 06:58:47;;;;;;;380.10;362.65;;;;;;;18.78;100.00;101840.94;10480039;28;20056;-68
2023/09/15 07:03:48;;;;;;;316.33;302.40;;;;;;;18.98;100.00;101837.94;10497711;28;20076;-68
2023/09/15 07:08:49;;;;;;;299.48;286.33;;;;;;;19.07;100.00;101846.69;10497239;28;20059;-68
2023/09/15 07:13:49;;;;;;;258.70;247.25;;;;;;;19.09;100.00;101843.72;10497283;28;20107;-68
2023/09/15 07:18:50;;;;;;;212.18;202.73;;;;;;;19.04;100.00;101850.72;10496587;28;20032;-68
2023/09/15 07:23:50;;;;;;;215.63;205.70;;;;;;;19.78;100.00;101845.06;10496985;28;20357;-68
2023/09/15 07:28:51;;;;;;;226.43;216.35;;;;;;;20.03;97.17;101835.78;10479196;28;20032;-69
2023/09/15 07:33:51;;;;;;;230.35;219.40;;;;;;;20.35;94.89;101837.09;10478887;28;20040;-70
2023/09/15 07:38:52;;;;;;;200.77;191.18;;;;;;;20.51;88.15;101837.44;10498204;28;20498;-75
2023/09/15 07:43:56;;;;;;;187.85;179.55;;;;;;;20.62;89.45;101831.13;10479281;28;20130;-73
2023/09/15 07:48:57;;;;;;;265.77;254.10;;;;;;;21.08;85.72;101830.16;10479100;28;20033;-67
2023/09/15 07:53:59;;;;;;;269.80;258.23;;;;;;;;;;10494925;28;20076;-66
2023/09/15 07:58:59;;;;;;;268.15;256.50;;;;;;;21.70;78.78;101818.41;10476547;28;20135;-67
2023/09/15 08:04:00;;;;;;;296.73;283.98;;;;;;;22.46;79.27;101824.28;10495102;28;20044;-67
2023/09/15 08:09:00;;;;;;;324.40;307.95;;;;;;;23.03;66.50;101812.03;10494659;28;20028;-71
2023/09/15 08:14:01;;;;;;;258.58;247.52;;;;;;;22.89;65.17;101806.06;10477591;28;20040;-72
2023/09/15 08:19:01;;;;;;;266.65;255.07;;;;;;;23.17;66.73;101812.50;10478258;28;20051;-66
2023/09/15 08:24:03;;;;;;;293.45;281.00;;;;;;;23.72;70.48;101816.91;10494177;28;20048;-75
2023/09/15 08:29:04;;;;;;;305.63;292.73;;;;;;;23.87;61.31;101816.22;10494964;28;20123;-72
2023/09/15 08:34:05;;;;;;;311.48;297.80;;;;;;;24.10;61.55;101818.59;10495015;28;20028;-74
2023/09/15 08:39:05;;;;;;;281.92;269.10;;;;;;;24.01;61.54;101811.06;10494752;28;20036;-70
2023/09/15 08:44:11;;;;;;;314.40;300.45;;;;;;;24.44;58.49;101811.91;10493920;28;20037;-69
2023/09/15 08:49:12;;;;;;;316.30;303.00;;;;;;;24.36;55.80;101805.75;10477180;28;20066;-70
2023/09/15 08:54:13;;;;;;;305.98;292.73;;;;;;;24.45;56.17;101813.59;10459688;28;20037;-70
2023/09/15 08:59:17;;;;;;;348.63;333.85;;;;;;;24.87;56.02;101810.72;10476740;28;20202;-74
2023/09/15 09:04:17;;;;;;;357.17;341.83;;;;;;;25.04;52.32;101807.72;10476053;28;20056;-69
2023/09/15 09:09:17;;;;;;;365.58;349.83;;;;;;;25.31;55.83;101801.19;10494412;28;20421;-70
2023/09/15 09:14:18;;;;;;;419.75;401.48;;;;;;;25.37;49.40;101798.16;10479536;28;20111;-69
2023/09/15 09:19:18;;;;;;;401.65;384.52;;;;;;;25.12;51.44;101793.38;10502361;28;20108;-71
2023/09/15 09:24:19;;;;;;;455.67;433.67;;;;;;;25.63;49.57;101785.13;10501417;28;20063;-73
2023/09/15 09:29:27;;;;;;;455.77;434.73;;;;;;;25.49;49.58;101792.31;10466860;28;20031;-68
2023/09/15 09:34:27;;;;;;;447.42;427.00;;;;;;;25.72;49.20;101775.13;10500892;28;20021;-69
2023/09/15 09:39:28;;;;;;;470.63;448.05;;;;;;;26.15;46.16;101761.75;10501716;28;20036;-69
2023/09/15 09:44:31;;;;;;;479.38;456.83;;;;;;;26.50;47.72;101765.56;10483340;28;20044;-72
2023/09/15 09:49:31;;;;;;;479.85;457.33;;;;;;;26.24;49.17;101763.97;10450230;28;20025;-74
2023/09/15 09:54:34;;;;;;;518.47;493.50;;;;;;;25.96;45.83;101769.03;10500315;28;20040;-77
2023/09/15 09:59:36;;;;;;;484.58;461.23;;;;;;;25.88;46.20;101758.50;10500327;28;20048;-69
2023/09/15 10:04:36;;;;;;;464.17;442.90;;;;;;;26.17;48.17;101765.09;10499642;28;20056;-68
2023/09/15 10:09:36;;;;;;;465.73;444.08;;;;;;;26.50;45.15;101760.03;10498799;28;20044;-67
2023/09/15 10:14:37;;;;;;;547.97;519.08;;;;;;;26.36;43.91;101761.72;10481601;28;20027;-68
2023/09/15 10:19:39;;;;;;;467.27;445.20;;;;;;;25.86;44.55;101753.22;10464588;28;20036;-68
2023/09/15 10:24:44;;;;;;;502.52;476.17;;;;;;;25.75;44.79;101746.84;10464884;28;20119;-68
2023/09/15 10:29:45;;;;;;;443.15;422.90;;;;;;;26.07;44.43;101729.03;10481869;28;20055;-67
2023/09/15 10:34:46;;;;;;;431.60;412.58;;;;;;;26.11;42.78;101727.38;10498021;28;20043;-70
2023/09/15 10:39:46;;;;;;;452.58;430.67;;;;;;;26.09;43.59;101723.19;10463753;28;20081;-69
2023/09/15 10:44:47;;;;;;;413.25;395.02;;;;;;;26.10;44.20;101716.53;10480430;28;20577;-68
2023/09/15 10:49:53;;;;;;;454.17;432.70;;;;;;;26.15;42.69;101716.53;10498120;28;20031;-69
2023/09/15 10:54:54;;;;;;;499.48;473.40;;;;;;;26.20;42.43;101720.13;10479733;28;20037;-66
2023/09/15 10:59:55;;;;;;;564.92;531.47;;;;;;;25.83;42.85;101703.00;10498580;28;20048;-66
2023/09/15 11:04:55;;;;;;;505.70;480.00;;;;;;;25.88;43.44;101691.91;10462136;28;20031;-66
2023/09/15 11:09:57;;;;;;;412.33;393.98;;;;;;;26.40;44.36;101691.44;10478974;28;20051;-67
2023/09/15 11:15:02;;;;;;;431.10;411.70;;;;;;;26.47;43.78;101687.50;10480191;28;20471;-66
2023/09/15 11:20:05;;;;;;;433.90;414.33;;;;;;;26.77;43.99;101683.75;10447190;28;20103;-66
2023/09/15 11:25:07;;;;;;;422.77;404.25;;;;;;;26.91;42.82;101687.56;10496498;28;20119;-66
2023/09/15 11:30:08;;;;;;;421.73;403.30;;;;;;;26.56;43.69;101686.66;10478912;28;20043;-66
2023/09/15 11:35:12;;;;;;;386.42;369.80;;;;;;;26.65;43.84;101682.16;10495695;28;20035;-66
2023/09/15 11:40:22;;;;;;;442.52;422.73;;;;;;;27.12;44.42;101679.88;10462650;28;20076;-67
2023/09/15 11:45:26;;;;;;;422.48;404.13;;;;;;;26.24;44.56;101675.97;10478143;28;20031;-67
2023/09/15 11:50:27;;;;;;;455.13;434.45;;;;;;;25.50;46.83;101678.34;10478264;28;20057;-67
2023/09/15 11:55:27;;;;;;;431.92;412.90;;;;;;;26.60;46.65;101671.06;10477541;28;20541;-67
2023/09/15 12:00:30;;;;;;;462.80;441.67;;;;;;;27.38;42.18;101674.13;10494626;28;20052;-67
2023/09/15 12:05:30;;;;;;;457.08;436.30;;;;;;;27.43;43.99;101657.41;10477823;28;20032;-68
2023/09/15 12:10:30;;;;;;;539.65;512.20;;;;;;;27.39;42.67;101659.94;10477963;28;20032;-68
2023/09/15 12:15:32;;;;;;;518.78;493.58;;;;;;;26.44;43.37;101650.03;10496201;28;20044;-69
2023/09/15 12:20:36;;;;;;;576.20;546.25;;;;;;;26.21;44.01;101638.47;10474687;28;20033;-68
2023/09/15 12:25:36;;;;;;;502.48;478.63;;;;;;;25.26;46.62;101644.81;10494832;28;20124;-69
2023/09/15 12:30:43;;;;;;;500.20;476.15;;;;;;;24.20;47.07;101649.00;10478042;28;20113;-66
2023/09/15 12:35:43;;;;;;;499.20;475.40;;;;;;;23.59;47.47;101651.44;10494819;28;20119;-67
2023/09/15 12:40:47;;;;;;;438.85;419.45;;;;;;;23.50;48.21;101644.72;10460172;28;20125;-67
2023/09/15 12:45:48;;;;;;;391.77;374.95;;;;;;;23.57;48.99;101634.25;10461245;28;20043;-69
2023/09/15 12:50:48;;;;;;;357.85;342.33;;;;;;;23.19;50.71;101644.50;10490131;28;20029;-67
2023/09/15 12:55:48;;;;;;;358.10;343.02;;;;;;;24.24;49.08;101627.97;10474823;28;20033;-68
2023/09/15 13:00:50;;;;;;;380.05;363.95;;;;;;;25.78;46.25;101608.66;10490294;28;20486;-68
2023/09/15 13:05:52;;;;;;;382.30;365.95;;;;;;;27.31;45.39;101604.94;10473219;28;20027;-67
2023/09/15 13:10:52;;;;;;;395.45;378.23;;;;;;;27.64;43.01;101599.63;10509025;28;20104;-69
2023/09/15 13:15:52;;;;;;;428.40;409.55;;;;;;;27.28;44.55;101584.13;10507603;28;20471;-68
2023/09/15 13:20:53;;;;;;;468.98;447.67;;;;;;;27.24;44.05;101579.44;10489330;28;20036;-68
2023/09/15 13:25:53;;;;;;;529.10;503.15;;;;;;;27.19;40.83;101580.34;10429191;28;20052;-68
2023/09/15 13:30:54;;;;;;;581.30;551.58;;;;;;;27.01;44.06;101572.69;10506956;28;20041;-68
2023/09/15 13:35:54;;;;;;;591.65;561.10;;;;;;;27.07;41.23;101571.50;10507807;28;20141;-68
2023/09/15 13:40:54;;;;;;;689.42;649.70;;;;;;;26.79;42.33;101564.81;10508927;28;20127;-67
2023/09/15 13:45:58;;;;;;;702.30;661.92;;;;;;;26.55;42.90;101559.19;10507363;28;20063;-68
2023/09/15 13:50:59;;;;;;;710.85;669.25;;;;;;;26.10;42.86;101561.94;10507704;28;20480;-68
2023/09/15 13:56:00;;;;;;;681.83;643.60;;;;;;;26.42;45.80;101549.53;10488659;28;20051;-68
2023/09/15 14:01:01;;;;;;;719.83;677.65;;;;;;;26.52;44.64;101543.91;10501751;28;20059;-67
2023/09/15 14:06:01;;;;;;;686.63;647.55;;;;;;;26.43;44.69;101534.50;10482080;28;20028;-68
2023/09/15 14:11:02;;;;;;;700.58;660.25;;;;;;;26.12;44.08;101536.66;10481872;28;20487;-67
2023/09/15 14:16:02;;;;;;;663.53;626.90;;;;;;;26.05;45.02;101538.91;10500066;28;20122;-68
2023/09/15 14:21:03;;;;;;;689.95;649.85;;;;;;;25.78;45.36;101533.75;10500252;28;20087;-67
2023/09/15 14:26:03;;;;;;;632.17;598.38;;;;;;;25.46;44.20;101521.09;10464594;28;20032;-67
2023/09/15 14:31:03;;;;;;;616.70;584.03;;;;;;;25.31;45.70;101532.25;10499761;28;20425;-68
2023/09/15 14:36:04;;;;;;;600.55;569.20;;;;;;;24.92;46.36;101528.16;10498883;28;20043;-69
2023/09/15 14:41:05;;;;;;;570.67;542.03;;;;;;;24.61;46.97;101524.56;10481709;28;20127;-68
2023/09/15 14:46:06;;;;;;;554.88;527.28;;;;;;;23.88;46.93;101516.38;10498102;28;20072;-68
2023/09/15 14:51:07;;;;;;;521.45;496.13;;;;;;;23.61;48.46;101522.03;10498465;28;20032;-68
2023/09/15 14:56:07;;;;;;;502.48;478.60;;;;;;;23.13;48.73;101518.44;10498265;28;20066;-67
2023/09/15 15:01:09;;;;;;;420.17;401.88;;;;;;;22.68;49.62;101512.28;10498992;28;20483;-67
2023/09/15 15:06:09;;;;;;;349.10;334.45;;;;;;;22.38;50.62;101510.13;10496681;28;20123;-67
2023/09/15 15:11:10;;;;;;;331.70;317.77;;;;;;;22.29;50.66;101509.75;10478023;28;20486;-67
2023/09/15 15:16:15;;;;;;;362.05;346.10;;;;;;;22.02;51.71;101503.41;10497024;28;20120;-67
2023/09/15 15:21:16;;;;;;;314.67;301.30;;;;;;;21.89;52.10;101493.59;10497362;28;20033;-67
2023/09/15 15:26:16;;;;;;;282.67;270.88;;;;;;;21.97;52.81;101501.41;10497575;28;20025;-67
2023/09/15 15:31:16;;;;;;;257.85;247.30;;;;;;;22.10;52.49;101493.81;10478218;28;20123;-66
2023/09/15 15:36:17;;;;;;;285.90;273.98;;;;;;;22.14;52.70;101483.91;10497970;28;20113;-67
2023/09/15 15:41:18;;;;;;;281.65;269.08;;;;;;;22.23;52.83;101477.69;10462206;28;20048;-67
2023/09/15 15:46:20;;;;;;;312.77;299.27;;;;;;;22.36;52.86;101470.06;10495923;28;20028;-67
2023/09/15 15:51:20;;;;;;;286.40;273.77;;;;;;;22.29;52.92;101475.81;10495969;28;20048;-67
2023/09/15 15:56:21;;;;;;;312.08;298.67;;;;;;;22.27;52.81;101464.19;10476710;28;20036;-67
2023/09/15 16:01:22;;;;;;;292.45;280.30;;;;;;;22.26;53.04;101465.31;10477679;28;20376;-67
2023/09/15 16:06:22;;;;;;;363.88;348.15;;;;;;;22.12;53.61;101464.88;10495013;28;20029;-67
2023/09/15 16:11:22;;;;;;;306.52;292.75;;;;;;;22.13;52.85;101455.50;10476848;28;20040;-67
2023/09/15 16:16:23;;;;;;;344.83;328.05;;;;;;;22.23;52.46;101452.84;10495594;28;20120;-67
2023/09/15 16:21:23;;;;;;;325.33;311.95;;;;;;;22.23;52.85;101447.34;10476337;28;20096;-67
2023/09/15 16:26:24;;;;;;;317.58;304.23;;;;;;;22.04;53.31;101446.03;10495019;28;20069;-67
2023/09/15 16:31:24;;;;;;;316.70;303.73;;;;;;;21.95;53.03;101440.16;10495784;28;20040;-67
2023/09/15 16:36:25;;;;;;;287.98;275.90;;;;;;;21.87;53.31;101440.63;10493728;28;20068;-67
2023/09/15 16:41:27;;;;;;;318.45;304.58;;;;;;;21.78;53.72;101426.47;10476439;28;20043;-67
2023/09/15 16:46:28;;;;;;;304.25;291.75;;;;;;;21.87;54.72;101435.13;10494690;28;20033;-67
2023/09/15 16:51:29;;;;;;;318.63;305.35;;;;;;;21.88;54.40;101435.94;10494633;28;20035;-67
2023/09/15 16:56:29;;;;;;;317.90;304.20;;;;;;;21.88;54.29;101445.03;10494018;28;20049;-67
2023/09/15 17:01:29;;;;;;;307.88;294.92;;;;;;;21.85;54.08;101437.28;10494635;28;20498;-67
2023/09/15 17:06:30;;;;;;;330.83;317.05;;;;;;;21.68;55.01;101436.56;10459874;28;20029;-67
2023/09/15 17:11:31;;;;;;;310.63;297.90;;;;;;;21.55;55.22;101449.66;10459502;28;20461;-67
2023/09/15 17:16:31;;;;;;;292.23;280.08;;;;;;;21.40;56.02;101443.94;10476984;28;20401;-67
2023/09/15 17:21:32;;;;;;;282.27;270.83;;;;;;;21.27;56.60;101447.06;10474935;28;20032;-67
2023/09/15 17:26:45;;;;;;;246.00;235.75;;;;;;;21.14;57.55;101445.50;10494215;28;20033;-67
2023/09/15 17:31:46;;;;;;;246.52;236.50;;;;;;;21.02;58.38;101456.63;10493737;28;20035;-67
2023/09/15 17:36:46;;;;;;;240.57;230.95;;;;;;;20.93;58.08;101455.41;10498914;28;20055;-67
2023/09/15 17:41:47;;;;;;;223.68;214.48;;;;;;;20.73;61.35;101460.59;10501366;28;20429;-67
2023/09/15 17:46:47;;;;;;;211.98;203.30;;;;;;;20.61;61.95;101458.78;10501691;28;20119;-67
2023/09/15 17:51:48;;;;;;;229.77;219.73;;;;;;;20.40;62.04;101448.50;10483659;28;20427;-67
2023/09/15 17:56:50;;;;;;;211.77;203.02;;;;;;;20.17;64.10;101455.00;10500886;28;20108;-67
2023/09/15 18:01:50;;;;;;;194.90;187.00;;;;;;;19.98;66.19;101452.44;10500487;28;20040;-67
2023/09/15 18:06:51;;;;;;;191.27;183.52;;;;;;;19.80;67.36;101466.38;10483060;28;20422;-67
2023/09/15 18:11:51;;;;;;;166.70;159.60;;;;;;;19.65;67.63;101452.34;10481699;28;20112;-67
2023/09/15 18:16:52;;;;;;;152.38;145.88;;;;;;;19.49;69.89;101460.25;10483496;28;20051;-67
2023/09/15 18:21:54;;;;;;;147.63;141.50;;;;;;;19.35;70.33;101467.09;10499100;28;20069;-67
2023/09/15 18:26:55;;;;;;;135.80;130.15;;;;;;;19.22;71.60;101465.44;10499313;28;20037;-67
2023/09/15 18:31:56;;;;;;;137.15;130.68;;;;;;;19.09;72.53;101457.47;10498497;28;20140;-67
2023/09/15 18:36:58;;;;;;;132.63;127.20;;;;;;;18.93;70.00;101455.47;10481388;28;20037;-67
2023/09/15 18:41:59;;;;;;;113.43;107.93;;;;;;;18.75;70.82;101465.47;10481034;28;20060;-67
2023/09/15 18:46:59;;;;;;;117.28;112.05;;;;;;;18.64;71.45;101462.72;10480026;28;20068;-68
2023/09/15 18:52:00;;;;;;;109.55;104.78;;;;;;;18.51;71.44;101458.28;10498049;28;20375;-68
2023/09/15 18:57:01;;;;;;;87.20;82.90;;;;;;;18.37;72.11;101471.38;10463291;28;20043;-68
2023/09/15 19:02:02;;;;;;;497.13;472.98;;;;;;;18.22;73.07;101469.09;10498713;28;20091;-68
2023/09/15 19:07:03;;;;;;;416.00;396.67;;;;;;;18.09;73.11;101472.00;10479113;28;20084;-68
2023/09/15 19:12:04;;;;;;;366.77;350.77;;;;;;;18.01;75.23;101472.34;10497950;28;20139;-68
2023/09/15 19:17:05;;;;;;;316.05;302.23;;;;;;;17.92;76.65;101471.00;10495933;28;20120;-68
2023/09/15 19:22:05;;;;;;;355.70;340.23;;;;;;;17.85;78.90;101469.19;10497251;28;20040;-68
2023/09/15 19:27:06;;;;;;;403.63;385.48;;;;;;;17.79;78.66;101470.13;10496708;28;20054;-68
2023/09/15 19:32:06;;;;;;;349.58;334.20;;;;;;;17.66;78.50;101462.88;10479237;28;20433;-68
2023/09/15 19:37:07;;;;;;;336.73;322.30;;;;;;;17.53;79.29;101463.06;10496834;28;20064;-68
2023/09/15 19:42:07;;;;;;;351.88;336.45;;;;;;;17.45;79.58;101471.56;10495623;28;20071;-68
2023/09/15 19:47:08;;;;;;;375.20;358.88;;;;;;;17.36;80.47;101462.03;10478006;28;20033;-68
2023/09/15 19:52:09;;;;;;;346.27;331.42;;;;;;;17.34;83.15;101462.22;10496237;28;20115;-68
2023/09/15 19:57:09;;;;;;;362.85;347.05;;;;;;;17.28;85.24;101465.88;10477016;28;20048;-68
2023/09/15 20:02:11;;;;;;;263.55;252.38;;;;;;;17.25;85.17;101470.97;10477067;28;20109;-68
2023/09/15 20:07:11;;;;;;;140.70;134.10;;;;;;;17.14;85.83;101454.25;10495661;28;20103;-68
2023/09/15 20:12:12;;;;;;;114.03;109.00;;;;;;;17.08;89.61;101457.91;10495359;28;20123;-68
2023/09/15 20:17:12;;;;;;;88.50;84.45;;;;;;;17.02;91.96;101464.28;10476513;28;20039;-68
2023/09/15 20:22:13;;;;;;;87.07;82.72;;;;;;;16.95;93.18;101458.88;10478063;28;20139;-68
2023/09/15 20:27:14;;;;;;;77.18;73.05;;;;;;;16.93;95.60;101458.25;10494115;28;20025;-68
2023/09/15 20:32:14;;;;;;;73.00;69.57;;;;;;;16.88;99.29;101460.84;10495208;28;20040;-68
2023/09/15 20:37:14;;;;;;;69.88;66.22;;;;;;;16.85;95.57;101466.78;10493997;28;20029;-68
2023/09/15 20:42:15;;;;;;;64.30;61.00;;;;;;;16.77;93.80;101461.56;10494242;28;20544;-67
2023/09/15 20:47:16;;;;;;;46.42;43.80;;;;;;;16.68;94.96;101455.50;10495038;28;20107;-67
2023/09/15 20:52:16;;;;;;;46.92;44.28;;;;;;;16.57;96.19;101463.63;10459765;28;20060;-67
2023/09/15 20:57:16;;;;;;;48.17;45.30;;;;;;;16.55;97.96;101461.09;10476477;28;20133;-66
2023/09/15 21:02:17;;;;;;;46.17;43.78;;;;;;;16.47;100.00;101464.97;10426181;28;20555;-66
2023/09/15 21:07:17;;;;;;;45.22;42.58;;;;;;;16.41;97.98;101463.13;10411017;28;20359;-67
2023/09/15 21:12:18;;;;;;;49.83;47.08;;;;;;;16.35;96.48;101472.22;10419136;28;20467;-67
2023/09/15 21:17:18;;;;;;;55.47;52.22;;;;;;;16.35;97.99;101463.19;10418035;28;20063;-66
2023/09/15 21:22:19;;;;;;;53.17;50.40;;;;;;;16.31;96.07;101471.00;10419581;28;20041;-67
2023/09/15 21:27:19;;;;;;;54.38;51.55;;;;;;;16.25;95.05;101463.66;10417690;28;20044;-68
2023/09/15 21:32:20;;;;;;;60.65;57.40;;;;;;;16.18;94.75;101462.88;10418162;28;20033;-67
2023/09/15 21:37:20;;;;;;;54.58;51.17;;;;;;;16.13;94.96;101457.25;10434651;28;20068;-67
2023/09/15 21:42:21;;;;;;;63.47;60.03;;;;;;;16.07;96.46;101461.69;10434952;28;20165;-67
2023/09/15 21:47:21;;;;;;;50.10;47.28;;;;;;;16.09;97.40;101467.78;10416771;28;20112;-67
2023/09/15 21:52:22;;;;;;;59.88;56.40;;;;;;;16.04;96.70;101470.31;10418730;28;20445;-67
2023/09/15 21:57:23;;;;;;;63.88;59.70;;;;;;;15.97;96.50;101464.91;10415948;28;20366;-67
2023/09/15 22:02:23;;;;;;;61.10;57.90;;;;;;;15.99;96.08;101470.16;10443684;28;20144;-67